Aérodrome :
LOGIN :

S'inscrire | Disclaimer

   EN    FR    IT 

 










Légende :    VFR   VFR Marginal   IFR   IFR Intensif   IFR Très Intensif
Visi : 
Plafond : 
>= 8 km
>= 3000ft
5 à 8 km
1000 à 3000 ft
1500m à 5 km
500 à 1000 ft
800 à 1500m
200 à 500 ft
< 800m
< 200 ft
Symboles :   Orages  Brouillard  Fortes neiges  Fortes précipitations  Vent > 20 kt
SIGMETs :   Divers  Orages  Givrage  Turbulence  Onde Orograph.  Cendres Volcan.







- Altitude de l'aérodrome : 856 ft
- Code IATA : VGO


LEVX - Vigo Peinador

DERNIER METAR :
  • 221430Z 35010KT 9999 BKN030 10/07 Q1020 NOSIG

METARs EXPIRÉS :
  • 221400Z 35014KT 330V030 9999 FEW012 SCT035 10/07 Q1020 NOSIG
  • 221330Z 34014KT 310V020 9999 -RA SCT012 BKN017 BKN023 10/07 Q1020 NOSIG
  • 221318Z 34013KT 310V020 8000 -RA BKN013 BKN023 10/08 Q1020 BECMG BKN020
  • 221300Z 34013G23KT 8000 3000E BCFG FEW003 SCT009 BKN015 10/09 Q1020 TEMPO 3000 -RA
  • 221230Z 35012G22KT 310V020 6000 2500E BCFG SCT002 BKN007 BKN025 10/09 Q1020 TEMPO 3000 -RA
  • 221200Z VRB07KT 0100 R19/0800D R01/0275N BCFG -RA VV001 11/10 Q1019 RERA TEMPO 1500 BKN005

TAF TAF LEVX
Valide du 22 à 12h jusqu'au 23 à 12h UTC


221100Z 2212/2312 35009KT 9999 BKN025 TX10/2214Z TN06/2212Z
PROB40
TEMPO 2212/2218 0600 BCFG VV002
PROB40
TEMPO 2212/2312 3000 -RA BKN010 BKN014
PROB30
TEMPO 2212/2215 1500 RA BKN005
TEMPO 2303/2312 25015G25KT
Pas de NOTAMs connus pour ce terrain.
1 SIGMET publié pour la FIR Madrid (LECM) :
 
Onde orographique forte
LECM SIGMET 3 VALID 221300/221700 LEVA
LECM MADRID FIR/UIR SEV MTW FCST N OF LINE N4240 W001 - N4230 E00010 FL060/360 STNR NC=



MET'MAP, la Météo Aéronautique d'un coup d'oeil ! - Copyright ORBIFLY Décembre 2007 - Disclaimer

ORBIFLY MET'MAP TEAM :

Programmation & Développement : Alexandra Zaïnal
Conception & Développement : Baudouin d'Aumeries
Co-Programmation & Développement : Marc-Olivier Méhu
Soutien technique & logistique : Manuel Goepfert

Contact : metmap@orbifly.com




SOURCES & CREDITS :

   NOAA